createdAt,value
2022-08-05T00:01:27.896Z,53.10
2022-08-05T00:03:57.089Z,53.10
2022-08-05T00:06:30.799Z,53.30
2022-08-05T00:09:00.964Z,53.40
2022-08-05T00:11:30.508Z,53.40
2022-08-05T00:14:12.645Z,53.40
2022-08-05T00:16:52.537Z,53.40
2022-08-05T00:19:22.255Z,53.50
2022-08-05T00:21:49.411Z,53.60
2022-08-05T00:24:19.179Z,53.60
2022-08-05T00:26:53.159Z,53.70
2022-08-05T00:29:22.802Z,53.80
2022-08-05T00:32:12.426Z,53.90
2022-08-05T00:34:56.409Z,53.90
2022-08-05T00:37:50.342Z,54.00
2022-08-05T00:40:14.681Z,54.00
2022-08-05T00:42:48.382Z,53.80
2022-08-05T00:45:16.785Z,53.90
2022-08-05T00:48:05.690Z,53.80
2022-08-05T00:50:32.865Z,53.80
2022-08-05T00:53:02.167Z,53.50
2022-08-05T00:55:34.176Z,53.50
2022-08-05T00:58:11.689Z,53.40
2022-08-05T01:00:39.629Z,53.40
2022-08-05T01:03:07.999Z,53.40
2022-08-05T01:05:35.634Z,53.60
2022-08-05T01:08:41.029Z,53.50
2022-08-05T01:10:55.639Z,53.60
2022-08-05T01:13:58.302Z,53.50
2022-08-05T01:16:47.353Z,53.60
2022-08-05T01:19:46.081Z,53.40
2022-08-05T01:22:42.869Z,53.50
2022-08-05T01:25:39.771Z,53.60
2022-08-05T01:28:26.175Z,53.50
2022-08-05T01:30:59.597Z,53.50
2022-08-05T01:33:36.055Z,53.40
2022-08-05T01:36:13.198Z,53.10
2022-08-05T01:38:45.633Z,53.00
2022-08-05T01:41:18.156Z,53.00
2022-08-05T01:43:52.110Z,53.00
2022-08-05T01:46:41.447Z,53.00
2022-08-05T01:49:23.619Z,53.10
2022-08-05T01:51:58.412Z,53.00
2022-08-05T01:54:30.128Z,53.10
2022-08-05T01:58:11.256Z,53.10
2022-08-05T01:59:48.359Z,53.10
2022-08-05T02:02:17.747Z,53.20
2022-08-05T02:04:49.525Z,53.20
2022-08-05T02:07:22.077Z,53.20
2022-08-05T02:09:52.971Z,53.10
2022-08-05T02:12:25.433Z,53.00
2022-08-05T02:15:12.229Z,53.00
2022-08-05T02:18:33.134Z,53.30
2022-08-05T02:20:54.042Z,53.10
2022-08-05T02:23:33.590Z,53.00
2022-08-05T02:26:04.884Z,53.00
2022-08-05T02:28:38.430Z,53.00
2022-08-05T02:31:21.070Z,53.00
2022-08-05T02:33:57.346Z,52.90
2022-08-05T02:36:27.252Z,52.90
2022-08-05T02:38:56.854Z,53.30
2022-08-05T02:41:28.357Z,52.90
2022-08-05T02:44:13.052Z,52.90
2022-08-05T02:46:53.738Z,52.80
2022-08-05T02:49:36.587Z,52.80
2022-08-05T02:52:30.051Z,52.80
2022-08-05T02:55:01.789Z,52.70
2022-08-05T02:58:11.485Z,52.80
2022-08-05T03:00:20.084Z,52.90
2022-08-05T03:02:47.947Z,52.80
2022-08-05T03:05:15.999Z,52.80
2022-08-05T03:08:04.510Z,52.70
2022-08-05T03:10:31.001Z,52.90
2022-08-05T03:15:24.385Z,52.60
2022-08-05T03:17:57.671Z,52.60
2022-08-05T03:20:25.016Z,52.80
2022-08-05T03:22:53.010Z,52.60
2022-08-05T03:25:33.878Z,52.60
2022-08-05T03:28:11.149Z,52.70
2022-08-05T03:30:42.275Z,52.70
2022-08-05T03:33:09.578Z,52.60
2022-08-05T03:35:40.815Z,52.60
2022-08-05T03:38:12.294Z,52.70
2022-08-05T03:40:48.681Z,52.70
2022-08-05T03:44:09.870Z,52.70
2022-08-05T03:46:04.787Z,52.70
2022-08-05T03:48:35.068Z,52.60
2022-08-05T03:52:39.329Z,53.30
2022-08-05T03:56:01.591Z,52.80
2022-08-05T03:56:59.887Z,52.80
2022-08-05T03:59:47.132Z,52.80
2022-08-05T04:02:37.942Z,52.80
2022-08-05T04:05:10.373Z,52.70
2022-08-05T04:07:58.211Z,52.80
2022-08-05T04:10:28.415Z,52.90
2022-08-05T04:12:59.334Z,52.90
2022-08-05T04:15:27.792Z,53.40
2022-08-05T04:18:03.844Z,52.90
2022-08-05T04:20:33.925Z,52.80
2022-08-05T04:23:00.648Z,52.80
2022-08-05T04:25:57.370Z,52.70
2022-08-05T04:28:15.115Z,52.90
2022-08-05T04:30:44.427Z,53.00
2022-08-05T04:33:12.527Z,52.80
2022-08-05T04:36:16.321Z,53.10
2022-08-05T04:38:40.004Z,52.80
2022-08-05T04:41:07.571Z,52.90
2022-08-05T04:43:37.776Z,53.50
2022-08-05T04:46:07.623Z,53.00
2022-08-05T04:48:34.388Z,52.90
2022-08-05T04:51:03.623Z,53.00
2022-08-05T04:53:38.579Z,53.10
2022-08-05T04:56:33.050Z,53.00
2022-08-05T04:58:54.289Z,53.10
2022-08-05T05:02:07.899Z,53.00
2022-08-05T05:04:08.284Z,53.30
2022-08-05T05:06:44.200Z,53.00
2022-08-05T05:09:14.138Z,53.60
2022-08-05T05:11:54.571Z,53.10
2022-08-05T05:14:31.419Z,52.80
2022-08-05T05:17:03.399Z,52.90
2022-08-05T05:19:37.273Z,52.80
2022-08-05T05:22:23.571Z,52.70
2022-08-05T05:25:00.002Z,52.60
2022-08-05T05:27:41.541Z,52.60
2022-08-05T05:30:29.720Z,52.60
2022-08-05T05:33:00.224Z,52.40
2022-08-05T05:35:34.309Z,52.50
2022-08-05T05:38:13.364Z,52.70
2022-08-05T05:40:49.730Z,53.90
2022-08-05T05:43:22.424Z,52.60
2022-08-05T05:46:12.223Z,52.80
2022-08-05T05:48:44.002Z,52.50
2022-08-05T05:51:15.511Z,52.70
2022-08-05T05:53:46.052Z,52.80
2022-08-05T05:56:34.965Z,52.80
2022-08-05T05:59:05.439Z,52.80
2022-08-05T06:01:38.904Z,52.60
2022-08-05T06:04:07.865Z,52.90
2022-08-05T06:06:35.219Z,52.20
2022-08-05T06:09:05.670Z,52.60
2022-08-05T06:11:35.301Z,52.40
2022-08-05T06:14:06.212Z,52.30
2022-08-05T06:16:36.989Z,52.50
2022-08-05T06:19:05.783Z,52.30
2022-08-05T06:21:36.734Z,52.30
2022-08-05T06:24:11.358Z,52.20
2022-08-05T06:26:51.290Z,52.30
2022-08-05T06:29:43.018Z,52.40
2022-08-05T06:32:06.003Z,52.50
2022-08-05T06:34:48.625Z,52.90
2022-08-05T06:37:52.332Z,53.00
2022-08-05T06:40:07.792Z,53.00
2022-08-05T06:42:34.726Z,52.80
2022-08-05T06:45:05.508Z,52.80
2022-08-05T06:48:44.433Z,53.20
2022-08-05T06:50:21.956Z,53.20
2022-08-05T06:53:03.605Z,52.70
2022-08-05T06:55:36.369Z,53.50
2022-08-05T07:00:51.041Z,51.90
2022-08-05T07:03:18.185Z,50.50
2022-08-05T07:10:53.140Z,50.00
2022-08-05T07:13:58.408Z,49.20
2022-08-05T07:17:59.331Z,49.30
2022-08-05T07:22:28.976Z,48.50
2022-08-05T07:25:23.685Z,48.60
2022-08-05T07:27:58.180Z,48.70
2022-08-05T07:30:34.449Z,48.70
2022-08-05T07:33:09.616Z,48.10
2022-08-05T07:36:03.191Z,47.80
2022-08-05T07:38:33.210Z,47.20
2022-08-05T07:42:07.128Z,47.00
2022-08-05T07:43:55.128Z,47.20
2022-08-05T07:46:25.983Z,47.60
2022-08-05T07:49:02.811Z,46.60
2022-08-05T07:51:36.821Z,46.40
2022-08-05T07:54:05.125Z,47.60
2022-08-05T07:57:00.517Z,45.00
2022-08-05T07:59:21.893Z,45.20
2022-08-05T08:01:52.465Z,45.40
2022-08-05T08:04:37.285Z,45.40
2022-08-05T08:07:05.420Z,44.80
2022-08-05T08:09:34.280Z,44.70
2022-08-05T08:12:09.063Z,44.90
2022-08-05T08:14:42.416Z,45.50
2022-08-05T08:17:16.277Z,45.50
2022-08-05T08:20:22.604Z,46.40
2022-08-05T08:22:32.587Z,45.90
2022-08-05T08:25:03.200Z,45.90
2022-08-05T08:27:31.470Z,45.60
2022-08-05T08:30:20.233Z,45.70
2022-08-05T08:32:57.114Z,45.20
2022-08-05T08:35:26.548Z,45.10
2022-08-05T08:37:54.445Z,47.20
2022-08-05T08:40:26.846Z,46.10
2022-08-05T08:42:54.803Z,45.10
2022-08-05T08:45:27.119Z,44.30
2022-08-05T08:48:12.695Z,44.10
2022-08-05T08:51:23.252Z,44.10
2022-08-05T08:53:37.346Z,48.40
2022-08-05T08:56:06.176Z,45.50
2022-08-05T08:58:37.562Z,45.00
2022-08-05T09:01:15.785Z,43.90
2022-08-05T09:03:54.352Z,44.10
2022-08-05T09:06:30.070Z,44.00
2022-08-05T09:09:00.615Z,43.70
2022-08-05T09:11:51.276Z,44.10
2022-08-05T09:14:58.375Z,44.10
2022-08-05T09:17:04.294Z,44.40
2022-08-05T09:19:36.262Z,42.30
2022-08-05T09:22:30.837Z,40.30
2022-08-05T09:24:58.763Z,40.70
2022-08-05T09:28:03.847Z,41.40
2022-08-05T09:30:23.547Z,41.10
2022-08-05T09:32:51.130Z,40.40
2022-08-05T09:35:26.925Z,40.20
2022-08-05T09:38:17.046Z,40.80
2022-08-05T09:40:52.022Z,41.20
2022-08-05T09:43:40.950Z,40.90
2022-08-05T09:46:28.026Z,40.70
2022-08-05T09:49:07.192Z,42.70
2022-08-05T09:51:38.199Z,40.50
2022-08-05T09:54:09.459Z,41.20
2022-08-05T09:56:38.939Z,41.20
2022-08-05T09:59:08.621Z,41.80
2022-08-05T10:01:40.016Z,40.70
2022-08-05T10:04:16.114Z,40.20
2022-08-05T10:06:59.336Z,39.60
2022-08-05T10:09:28.173Z,39.40
2022-08-05T10:12:30.547Z,38.30
2022-08-05T10:15:20.527Z,38.60
2022-08-05T10:18:05.994Z,37.00
2022-08-05T10:20:35.975Z,36.60
2022-08-05T10:23:03.344Z,35.60
2022-08-05T10:25:30.258Z,35.70
2022-08-05T10:28:13.105Z,35.40
2022-08-05T10:32:53.303Z,35.50
2022-08-05T10:33:35.133Z,33.90
2022-08-05T10:36:04.420Z,34.10
2022-08-05T10:38:33.435Z,33.20
2022-08-05T10:41:23.314Z,35.00
2022-08-05T10:44:01.340Z,37.10
2022-08-05T10:46:54.314Z,36.40
2022-08-05T10:49:26.718Z,39.20
2022-08-05T10:52:00.195Z,34.80
2022-08-05T10:54:56.304Z,34.30
2022-08-05T10:57:32.446Z,35.90
2022-08-05T11:00:20.073Z,33.60
2022-08-05T11:03:25.915Z,33.90
2022-08-05T11:06:03.713Z,35.90
2022-08-05T11:08:37.261Z,34.70
2022-08-05T11:11:44.479Z,34.10
2022-08-05T11:15:01.033Z,35.30
2022-08-05T11:17:59.485Z,33.80
2022-08-05T11:20:34.500Z,34.10
2022-08-05T11:24:03.782Z,34.50
2022-08-05T11:26:28.526Z,33.80
2022-08-05T11:29:06.868Z,33.20
2022-08-05T11:31:54.051Z,37.90
2022-08-05T11:34:51.144Z,35.00
2022-08-05T11:38:29.466Z,35.50
2022-08-05T11:41:03.465Z,35.80
2022-08-05T11:44:04.841Z,38.10
2022-08-05T11:46:37.491Z,35.80
2022-08-05T11:49:08.030Z,35.50
2022-08-05T11:51:44.571Z,35.50
2022-08-05T11:54:33.296Z,35.70
2022-08-05T11:57:07.687Z,36.00
2022-08-05T11:59:50.671Z,36.10
2022-08-05T12:02:24.207Z,36.50
2022-08-05T12:04:59.882Z,36.60
2022-08-05T12:08:03.577Z,38.10
2022-08-05T12:10:21.764Z,36.80
2022-08-05T12:12:59.834Z,37.00
2022-08-05T12:15:35.852Z,37.90
2022-08-05T12:18:11.131Z,37.90
2022-08-05T12:20:39.413Z,38.80
2022-08-05T12:23:13.672Z,38.60
2022-08-05T12:25:56.614Z,39.30
2022-08-05T12:28:31.412Z,38.80
2022-08-05T12:31:02.377Z,38.90
2022-08-05T12:33:36.333Z,39.00
2022-08-05T12:36:08.558Z,38.50
2022-08-05T12:38:40.363Z,38.90
2022-08-05T12:41:13.974Z,38.40
2022-08-05T12:44:04.236Z,39.00
2022-08-05T12:46:32.589Z,38.50
2022-08-05T12:49:14.610Z,39.40
2022-08-05T12:52:14.425Z,39.80
2022-08-05T12:54:49.712Z,40.00
2022-08-05T12:57:18.987Z,40.30
2022-08-05T13:01:57.318Z,40.10
2022-08-05T13:02:42.132Z,40.70
2022-08-05T13:05:14.735Z,40.70
2022-08-05T13:08:00.471Z,40.50
2022-08-05T13:10:31.378Z,41.00
2022-08-05T13:12:58.761Z,41.50
2022-08-05T13:15:41.709Z,40.60
2022-08-05T13:18:19.495Z,40.70
2022-08-05T13:20:47.136Z,40.00
2022-08-05T13:23:13.825Z,40.30
2022-08-05T13:25:51.755Z,39.90
2022-08-05T13:28:26.007Z,40.90
2022-08-05T13:30:53.189Z,39.70
2022-08-05T13:34:21.797Z,40.20
2022-08-05T13:36:09.235Z,40.50
2022-08-05T13:38:38.447Z,40.70
2022-08-05T13:41:12.198Z,40.50
2022-08-05T13:43:44.304Z,39.80
2022-08-05T13:46:13.464Z,40.10
2022-08-05T13:48:58.871Z,39.30
2022-08-05T13:51:40.034Z,37.60
2022-08-05T13:54:12.594Z,36.60
2022-08-05T13:56:44.871Z,34.90
2022-08-05T13:59:20.326Z,36.20
2022-08-05T14:01:59.151Z,36.30
2022-08-05T14:04:51.314Z,35.80
2022-08-05T14:08:00.456Z,36.30
2022-08-05T14:10:32.654Z,38.10
2022-08-05T14:13:00.112Z,36.70
2022-08-05T14:16:04.935Z,35.90
2022-08-05T14:18:18.436Z,35.90
2022-08-05T14:20:52.955Z,35.40
2022-08-05T14:23:24.783Z,35.40
2022-08-05T14:25:54.617Z,35.30
2022-08-05T14:28:27.833Z,35.70
2022-08-05T14:30:55.649Z,36.10
2022-08-05T14:33:24.609Z,36.40
2022-08-05T14:35:53.938Z,36.70
2022-08-05T14:38:31.807Z,36.80
2022-08-05T14:41:06.647Z,35.90
2022-08-05T14:44:00.211Z,36.60
2022-08-05T14:46:28.410Z,35.40
2022-08-05T14:48:57.856Z,37.00
2022-08-05T14:51:30.699Z,38.80
2022-08-05T14:54:26.152Z,40.10
2022-08-05T14:56:46.906Z,40.00
2022-08-05T14:59:14.801Z,40.60
2022-08-05T15:01:48.915Z,40.20
2022-08-05T15:04:20.509Z,40.30
2022-08-05T15:06:50.857Z,40.40
2022-08-05T15:09:51.999Z,40.90
2022-08-05T15:12:17.037Z,40.40
2022-08-05T15:14:50.050Z,40.60
2022-08-05T15:17:44.470Z,40.50
2022-08-05T15:20:18.355Z,41.00
2022-08-05T15:22:52.324Z,41.70
2022-08-05T15:25:23.611Z,40.70
2022-08-05T15:28:13.282Z,41.30
2022-08-05T15:30:46.499Z,40.60
2022-08-05T15:33:56.821Z,41.00
2022-08-05T15:36:03.743Z,39.90
2022-08-05T15:38:35.308Z,39.80
2022-08-05T15:41:20.706Z,38.30
2022-08-05T15:43:50.077Z,38.30
2022-08-05T15:46:18.948Z,37.50
2022-08-05T15:48:52.764Z,37.10
2022-08-05T15:52:12.556Z,36.70
2022-08-05T15:54:16.586Z,37.70
2022-08-05T15:56:43.683Z,37.00
2022-08-05T15:59:19.825Z,37.10
2022-08-05T16:01:53.023Z,38.00
2022-08-05T16:04:25.604Z,38.30
2022-08-05T16:06:53.936Z,38.40
2022-08-05T16:09:24.948Z,37.60
2022-08-05T16:11:54.091Z,38.50
2022-08-05T16:14:22.390Z,38.00
2022-08-05T16:16:51.544Z,38.00
2022-08-05T16:19:25.322Z,40.50
2022-08-05T16:22:06.666Z,38.00
2022-08-05T16:24:39.722Z,38.20
2022-08-05T16:27:09.436Z,37.60
2022-08-05T16:29:37.340Z,37.50
2022-08-05T16:32:06.402Z,37.70
2022-08-05T16:34:33.529Z,37.60
2022-08-05T16:37:00.277Z,37.10
2022-08-05T16:40:05.630Z,35.80
2022-08-05T16:42:28.303Z,36.30
2022-08-05T16:44:57.120Z,35.70
2022-08-05T16:47:28.576Z,35.30
2022-08-05T16:50:05.528Z,35.20
2022-08-05T16:52:32.739Z,33.80
2022-08-05T16:55:00.390Z,33.90
2022-08-05T16:57:42.975Z,34.70
2022-08-05T17:00:14.305Z,34.80
2022-08-05T17:03:09.291Z,35.00
2022-08-05T17:05:50.184Z,35.20
2022-08-05T17:08:33.386Z,36.00
2022-08-05T17:11:03.851Z,36.00
2022-08-05T17:13:37.703Z,36.20
2022-08-05T17:16:28.046Z,36.40
2022-08-05T17:18:55.585Z,36.70
2022-08-05T17:21:23.772Z,37.10
2022-08-05T17:24:04.877Z,36.90
2022-08-05T17:26:35.925Z,39.00
2022-08-05T17:29:04.219Z,37.20
2022-08-05T17:31:56.873Z,36.90
2022-08-05T17:34:21.379Z,36.60
2022-08-05T17:36:57.082Z,36.50
2022-08-05T17:39:34.640Z,36.60
2022-08-05T17:42:19.254Z,36.60
2022-08-05T17:44:50.087Z,36.20
2022-08-05T17:47:22.489Z,36.80
2022-08-05T17:49:59.556Z,36.90
2022-08-05T17:52:32.483Z,37.50
2022-08-05T17:54:59.945Z,37.80
2022-08-05T17:57:27.721Z,38.00
2022-08-05T18:00:03.792Z,38.30
2022-08-05T18:02:33.091Z,38.50
2022-08-05T18:05:06.325Z,38.60
2022-08-05T18:07:41.470Z,38.40
2022-08-05T18:10:11.535Z,38.50
2022-08-05T18:12:40.927Z,37.70
2022-08-05T18:15:08.896Z,37.40
2022-08-05T18:17:58.740Z,37.00
2022-08-05T18:20:29.653Z,36.90
2022-08-05T18:23:09.081Z,36.70
2022-08-05T18:25:45.582Z,36.20
2022-08-05T18:28:15.951Z,36.20
2022-08-05T18:30:45.176Z,36.20
2022-08-05T18:33:14.022Z,36.50
2022-08-05T18:36:01.235Z,36.20
2022-08-05T18:38:28.561Z,36.30
2022-08-05T18:41:58.087Z,36.40
2022-08-05T18:43:43.177Z,36.60
2022-08-05T18:46:19.909Z,36.90
2022-08-05T18:48:52.180Z,36.70
2022-08-05T18:52:05.982Z,37.20
2022-08-05T18:54:31.462Z,37.00
2022-08-05T18:57:01.770Z,36.90
2022-08-05T18:59:44.438Z,37.00
2022-08-05T19:02:26.884Z,36.70
2022-08-05T19:05:02.801Z,37.60
2022-08-05T19:07:46.411Z,37.20
2022-08-05T19:10:15.293Z,37.70
2022-08-05T19:12:43.294Z,37.50
2022-08-05T19:15:58.014Z,37.50
2022-08-05T19:18:08.476Z,37.80
2022-08-05T19:20:41.708Z,37.90
2022-08-05T19:24:03.707Z,37.90
2022-08-05T19:26:02.029Z,37.90
2022-08-05T19:28:30.780Z,38.00
2022-08-05T19:30:57.811Z,37.90
2022-08-05T19:33:35.558Z,38.10
2022-08-05T19:36:07.014Z,38.10
2022-08-05T19:38:37.262Z,38.10
2022-08-05T19:41:07.311Z,38.40
2022-08-05T19:44:05.699Z,38.30
2022-08-05T19:46:29.791Z,38.70
2022-08-05T19:49:03.025Z,39.70
2022-08-05T19:52:04.662Z,38.90
2022-08-05T19:54:30.990Z,39.00
2022-08-05T19:56:59.702Z,38.90
2022-08-05T19:59:55.394Z,39.20
2022-08-05T20:02:17.605Z,39.10
2022-08-05T20:04:46.070Z,39.30
2022-08-05T20:09:53.619Z,39.30
2022-08-05T20:12:23.509Z,39.50
2022-08-05T20:14:52.330Z,39.60
2022-08-05T20:17:23.423Z,39.60
2022-08-05T20:19:56.733Z,39.70
2022-08-05T20:22:27.292Z,39.40
2022-08-05T20:24:55.491Z,39.70
2022-08-05T20:27:26.720Z,39.80
2022-08-05T20:29:57.786Z,39.80
2022-08-05T20:32:26.626Z,39.70
2022-08-05T20:34:53.679Z,39.80
2022-08-05T20:38:04.883Z,40.60
2022-08-05T20:40:09.447Z,39.70
2022-08-05T20:42:36.478Z,39.60
2022-08-05T20:47:32.760Z,39.70
2022-08-05T20:50:02.038Z,40.20
2022-08-05T20:52:29.555Z,40.40
2022-08-05T20:54:59.151Z,40.60
2022-08-05T20:57:43.868Z,40.60
2022-08-05T21:03:06.948Z,41.00
2022-08-05T21:05:48.083Z,41.40
2022-08-05T21:08:32.854Z,41.60
2022-08-05T21:11:11.877Z,41.50
2022-08-05T21:16:29.050Z,41.90
2022-08-05T21:18:57.147Z,42.10
2022-08-05T21:21:27.331Z,42.20
2022-08-05T21:24:12.906Z,42.10
2022-08-05T21:26:41.389Z,42.10
2022-08-05T21:29:16.678Z,42.10
2022-08-05T21:31:43.863Z,42.70
2022-08-05T21:34:11.157Z,41.70
2022-08-05T21:36:38.420Z,41.60
2022-08-05T21:39:05.452Z,41.60
2022-08-05T21:41:35.715Z,41.50
2022-08-05T21:44:04.364Z,41.40
2022-08-05T21:46:34.299Z,41.20
2022-08-05T21:49:02.352Z,41.70
2022-08-05T21:52:21.813Z,42.00
2022-08-05T21:54:28.036Z,42.00
2022-08-05T21:57:29.743Z,41.90
2022-08-05T22:00:02.009Z,41.70
2022-08-05T22:02:31.382Z,41.70
2022-08-05T22:04:58.640Z,41.60
2022-08-05T22:07:40.042Z,41.30
2022-08-05T22:10:13.678Z,41.40
2022-08-05T22:12:44.729Z,41.30
2022-08-05T22:16:02.383Z,41.10
2022-08-05T22:18:06.214Z,41.00
2022-08-05T22:20:39.162Z,41.20
2022-08-05T22:24:02.701Z,41.00
2022-08-05T22:26:31.748Z,41.10
2022-08-05T22:29:00.402Z,41.00
2022-08-05T22:31:30.106Z,41.40
2022-08-05T22:34:01.157Z,40.90
2022-08-05T22:36:28.921Z,40.80
2022-08-05T22:38:56.846Z,40.80
2022-08-05T22:42:04.669Z,41.10
2022-08-05T22:44:11.851Z,41.10
2022-08-05T22:46:40.726Z,41.00
2022-08-05T22:50:18.390Z,40.80
2022-08-05T22:52:06.969Z,40.30
2022-08-05T22:54:39.709Z,40.90
2022-08-05T22:57:15.460Z,40.70
2022-08-05T22:59:44.085Z,40.70
2022-08-05T23:02:18.151Z,40.60
2022-08-05T23:04:51.247Z,40.50
2022-08-05T23:07:21.811Z,40.60
2022-08-05T23:09:57.806Z,40.60
2022-08-05T23:12:32.382Z,40.60
2022-08-05T23:15:03.392Z,40.70
2022-08-05T23:17:34.775Z,40.60
2022-08-05T23:20:17.513Z,40.70
2022-08-05T23:22:47.240Z,40.30
2022-08-05T23:25:17.690Z,40.70
2022-08-05T23:28:03.386Z,40.70
2022-08-05T23:30:40.381Z,47.20
2022-08-05T23:33:22.490Z,41.90
2022-08-05T23:35:55.100Z,40.70
2022-08-05T23:38:24.154Z,40.90
2022-08-05T23:40:52.636Z,40.80
2022-08-05T23:43:25.350Z,41.20
2022-08-05T23:46:05.113Z,40.60
2022-08-05T23:48:47.287Z,40.50
2022-08-05T23:51:53.775Z,40.60
2022-08-05T23:54:36.499Z,40.60
2022-08-05T23:57:06.626Z,40.70
